createdAt,value
2022-09-26T00:00:30.484Z,3.90
2022-09-26T00:02:58.087Z,4.20
2022-09-26T00:05:26.944Z,3.93
2022-09-26T00:07:54.414Z,3.60
2022-09-26T00:10:21.913Z,4.97
2022-09-26T00:12:49.370Z,4.17
2022-09-26T00:15:16.959Z,4.03
2022-09-26T00:17:44.407Z,4.13
2022-09-26T00:20:11.975Z,4.13
2022-09-26T00:22:40.831Z,4.17
2022-09-26T00:25:09.196Z,4.10
2022-09-26T00:27:36.646Z,4.20
2022-09-26T00:30:05.023Z,4.27
2022-09-26T00:32:32.488Z,3.70
2022-09-26T00:34:59.998Z,4.50
2022-09-26T00:37:27.584Z,4.10
2022-09-26T00:39:56.421Z,3.80
2022-09-26T00:42:25.075Z,3.80
2022-09-26T00:44:54.603Z,4.47
2022-09-26T00:47:40.593Z,4.50
2022-09-26T00:50:13.717Z,4.10
2022-09-26T00:52:44.743Z,4.30
2022-09-26T00:55:15.334Z,3.00
2022-09-26T00:57:46.371Z,4.03
2022-09-26T01:00:15.784Z,3.80
2022-09-26T01:02:44.100Z,4.17
2022-09-26T01:05:14.601Z,3.93
2022-09-26T01:07:42.121Z,4.77
2022-09-26T01:10:10.451Z,4.20
2022-09-26T01:12:39.749Z,4.33
2022-09-26T01:15:09.305Z,5.00
2022-09-26T01:17:37.928Z,4.30
2022-09-26T01:20:14.720Z,4.63
2022-09-26T01:23:07.068Z,4.60
2022-09-26T01:25:50.652Z,5.07
2022-09-26T01:28:34.963Z,4.40
2022-09-26T01:31:11.895Z,4.93
2022-09-26T01:33:49.588Z,6.07
2022-09-26T01:36:27.543Z,4.80
2022-09-26T01:39:04.426Z,5.07
2022-09-26T01:41:44.012Z,4.37
2022-09-26T01:44:20.745Z,5.10
2022-09-26T01:46:53.362Z,4.53
2022-09-26T01:49:24.268Z,4.53
2022-09-26T01:51:55.730Z,4.07
2022-09-26T01:54:27.602Z,4.60
2022-09-26T01:56:58.273Z,4.77
2022-09-26T01:59:28.334Z,4.97
2022-09-26T02:02:00.847Z,3.83
2022-09-26T02:04:32.121Z,3.80
2022-09-26T02:07:01.647Z,4.53
2022-09-26T02:09:31.242Z,4.57
2022-09-26T02:12:02.438Z,4.37
2022-09-26T02:14:32.853Z,4.97
2022-09-26T02:17:05.603Z,5.20
2022-09-26T02:19:36.353Z,4.57
2022-09-26T02:22:04.116Z,4.13
2022-09-26T02:24:31.679Z,3.97
2022-09-26T02:26:59.260Z,4.30
2022-09-26T02:29:27.927Z,5.10
2022-09-26T02:31:58.418Z,4.57
2022-09-26T02:34:27.582Z,4.80
2022-09-26T02:36:55.879Z,4.53
2022-09-26T02:39:23.432Z,4.10
2022-09-26T02:41:54.138Z,5.73
2022-09-26T02:44:32.107Z,4.83
2022-09-26T02:47:10.789Z,5.10
2022-09-26T02:49:51.079Z,4.10
2022-09-26T02:52:27.161Z,4.10
2022-09-26T02:55:01.856Z,4.37
2022-09-26T02:57:35.750Z,4.97
2022-09-26T03:00:06.826Z,6.70
2022-09-26T03:02:37.138Z,4.07
2022-09-26T03:05:10.044Z,3.67
2022-09-26T03:07:43.752Z,3.90
2022-09-26T03:10:12.982Z,4.40
2022-09-26T03:12:40.912Z,5.07
2022-09-26T03:15:09.651Z,4.73
2022-09-26T03:17:38.039Z,4.57
2022-09-26T03:20:11.089Z,4.53
2022-09-26T03:22:38.962Z,4.37
2022-09-26T03:25:09.034Z,5.20
2022-09-26T03:27:38.222Z,6.00
2022-09-26T03:30:06.512Z,5.00
2022-09-26T03:32:33.974Z,5.03
2022-09-26T03:35:01.490Z,5.47
2022-09-26T03:37:30.306Z,4.40
2022-09-26T03:39:57.751Z,4.73
2022-09-26T03:42:25.229Z,4.30
2022-09-26T03:44:53.157Z,5.00
2022-09-26T03:47:20.585Z,5.57
2022-09-26T03:49:48.107Z,5.20
2022-09-26T03:52:15.665Z,5.10
2022-09-26T03:54:44.789Z,6.17
2022-09-26T03:57:13.504Z,4.97
2022-09-26T03:59:41.194Z,5.17
2022-09-26T04:02:08.984Z,5.00
2022-09-26T04:04:36.588Z,5.17
2022-09-26T04:07:04.338Z,5.70
2022-09-26T04:09:32.374Z,4.87
2022-09-26T04:12:01.441Z,5.23
2022-09-26T04:14:28.900Z,5.50
2022-09-26T04:16:56.738Z,5.40
2022-09-26T04:19:24.401Z,4.60
2022-09-26T04:21:52.067Z,5.63
2022-09-26T04:24:19.525Z,5.17
2022-09-26T04:26:46.972Z,5.20
2022-09-26T04:29:16.003Z,4.63
2022-09-26T04:31:44.034Z,5.20
2022-09-26T04:34:12.187Z,5.57
2022-09-26T04:36:40.040Z,5.73
2022-09-26T04:39:07.680Z,6.40
2022-09-26T04:41:35.580Z,5.70
2022-09-26T04:44:03.306Z,5.63
2022-09-26T04:46:32.168Z,5.63
2022-09-26T04:49:00.956Z,5.47
2022-09-26T04:51:29.580Z,5.00
2022-09-26T04:53:57.149Z,4.70
2022-09-26T04:56:27.036Z,5.50
2022-09-26T04:58:56.820Z,4.73
2022-09-26T05:01:24.774Z,5.90
2022-09-26T05:03:55.050Z,5.40
2022-09-26T05:06:22.544Z,6.00
2022-09-26T05:08:50.817Z,4.83
2022-09-26T05:11:19.718Z,4.17
2022-09-26T05:13:53.059Z,6.00
2022-09-26T05:16:21.045Z,5.80
2022-09-26T05:18:50.892Z,5.77
2022-09-26T05:21:19.707Z,6.83
2022-09-26T05:24:05.097Z,6.93
2022-09-26T05:26:39.505Z,7.10
2022-09-26T05:29:08.907Z,8.40
2022-09-26T05:31:38.014Z,7.00
2022-09-26T05:34:06.073Z,6.87
2022-09-26T05:36:35.152Z,7.33
2022-09-26T05:39:03.073Z,6.30
2022-09-26T05:41:31.185Z,6.90
2022-09-26T05:43:58.957Z,8.73
2022-09-26T05:46:28.003Z,7.23
2022-09-26T05:48:57.139Z,7.50
2022-09-26T05:51:25.813Z,8.20
2022-09-26T05:53:54.682Z,8.40
2022-09-26T05:56:23.520Z,9.03
2022-09-26T05:58:51.348Z,9.10
2022-09-26T06:01:19.539Z,9.00
2022-09-26T06:03:48.063Z,7.93
2022-09-26T06:06:18.794Z,8.87
2022-09-26T06:08:47.139Z,8.67
2022-09-26T06:11:17.693Z,8.83
2022-09-26T06:13:46.487Z,8.40
2022-09-26T06:16:15.852Z,8.83
2022-09-26T06:18:43.500Z,10.73
2022-09-26T06:21:13.212Z,9.00
2022-09-26T06:23:40.823Z,10.07
2022-09-26T06:26:10.185Z,8.70
2022-09-26T06:28:40.109Z,10.50
2022-09-26T06:31:10.255Z,11.07
2022-09-26T06:33:37.754Z,11.40
2022-09-26T06:36:07.477Z,11.20
2022-09-26T06:38:35.506Z,12.30
2022-09-26T06:41:03.317Z,12.40
2022-09-26T06:43:31.203Z,12.70
2022-09-26T06:46:00.005Z,12.37
2022-09-26T06:48:27.543Z,14.13
2022-09-26T06:50:55.607Z,14.10
2022-09-26T06:53:23.671Z,14.60
2022-09-26T06:55:51.128Z,14.50
2022-09-26T06:58:18.739Z,14.70
2022-09-26T07:00:46.210Z,16.00
2022-09-26T07:03:15.961Z,15.27
2022-09-26T07:05:43.707Z,14.93
2022-09-26T07:08:11.299Z,14.67
2022-09-26T07:10:38.748Z,13.60
2022-09-26T07:13:07.608Z,13.67
2022-09-26T07:15:36.958Z,15.00
2022-09-26T07:18:06.294Z,14.80
2022-09-26T07:20:37.588Z,14.83
2022-09-26T07:23:08.475Z,14.10
2022-09-26T07:25:38.704Z,14.80
2022-09-26T07:28:06.731Z,13.97
2022-09-26T07:30:34.245Z,14.07
2022-09-26T07:33:04.013Z,16.20
2022-09-26T07:35:32.229Z,15.00
2022-09-26T07:38:01.062Z,14.23
2022-09-26T07:40:28.953Z,14.70
2022-09-26T07:43:18.715Z,13.40
2022-09-26T07:46:07.709Z,11.07
2022-09-26T07:48:53.140Z,13.80
2022-09-26T07:51:22.594Z,12.93
2022-09-26T07:53:51.503Z,12.47
2022-09-26T07:56:18.968Z,12.20
2022-09-26T07:58:46.625Z,9.97
2022-09-26T08:01:15.972Z,10.20
2022-09-26T08:03:46.030Z,9.87
2022-09-26T08:06:14.619Z,9.27
2022-09-26T08:08:42.278Z,8.30
2022-09-26T08:11:16.725Z,8.10
2022-09-26T08:13:44.629Z,7.73
2022-09-26T08:16:19.200Z,7.93
2022-09-26T08:18:47.357Z,7.57
2022-09-26T08:21:14.836Z,8.27
2022-09-26T08:23:42.360Z,6.90
2022-09-26T08:26:09.849Z,7.30
2022-09-26T08:28:39.205Z,7.10
2022-09-26T08:31:08.131Z,7.27
2022-09-26T08:33:38.621Z,6.43
2022-09-26T08:36:06.526Z,6.30
2022-09-26T08:38:35.400Z,6.20
2022-09-26T08:41:11.509Z,6.23
2022-09-26T08:43:54.004Z,6.53
2022-09-26T08:46:40.776Z,6.60
2022-09-26T08:49:23.991Z,6.67
2022-09-26T08:51:52.791Z,5.73
2022-09-26T08:54:23.698Z,5.93
2022-09-26T08:56:53.780Z,6.53
2022-09-26T08:59:27.165Z,4.63
2022-09-26T09:01:56.582Z,5.87
2022-09-26T09:04:28.697Z,4.53
2022-09-26T09:06:59.680Z,5.33
2022-09-26T09:09:27.147Z,6.87
2022-09-26T09:12:05.171Z,5.80
2022-09-26T09:14:57.966Z,5.33
2022-09-26T09:17:39.379Z,4.80
2022-09-26T09:20:16.076Z,4.37
2022-09-26T09:23:01.750Z,5.27
2022-09-26T09:25:32.526Z,4.23
2022-09-26T09:28:16.243Z,4.30
2022-09-26T09:30:48.123Z,3.70
2022-09-26T09:33:17.683Z,4.00
2022-09-26T09:35:48.803Z,4.17
2022-09-26T09:38:18.637Z,4.17
2022-09-26T09:40:51.893Z,3.67
2022-09-26T09:43:26.743Z,3.93
2022-09-26T09:45:58.834Z,3.40
2022-09-26T09:48:28.202Z,2.90
2022-09-26T09:51:08.574Z,3.00
2022-09-26T09:53:48.180Z,3.40
2022-09-26T09:56:24.275Z,3.13
2022-09-26T09:59:03.736Z,2.57
2022-09-26T10:01:36.641Z,2.20
2022-09-26T10:04:07.958Z,2.50
2022-09-26T10:06:44.164Z,2.60
2022-09-26T10:09:35.589Z,2.17
2022-09-26T10:12:13.317Z,2.03
2022-09-26T10:14:44.000Z,1.77
2022-09-26T10:17:21.175Z,1.90
2022-09-26T10:19:49.034Z,1.83
2022-09-26T10:22:26.005Z,1.30
2022-09-26T10:24:55.427Z,1.37
2022-09-26T10:27:35.410Z,1.70
2022-09-26T10:30:04.775Z,1.23
2022-09-26T10:32:45.680Z,1.87
2022-09-26T10:35:20.073Z,1.43
2022-09-26T10:37:50.099Z,1.30
2022-09-26T10:40:42.504Z,1.20
2022-09-26T10:43:24.995Z,1.40
2022-09-26T10:45:55.383Z,1.03
2022-09-26T10:48:48.054Z,1.30
2022-09-26T10:51:19.865Z,2.00
2022-09-26T10:53:51.994Z,1.63
2022-09-26T10:56:26.143Z,1.43
2022-09-26T10:58:58.272Z,1.63
2022-09-26T11:01:27.674Z,1.90
2022-09-26T11:03:59.921Z,1.93
2022-09-26T11:06:29.081Z,1.47
2022-09-26T11:09:02.889Z,1.63
2022-09-26T11:11:33.633Z,1.50
2022-09-26T11:14:05.696Z,1.70
2022-09-26T11:16:51.662Z,1.90
2022-09-26T11:19:27.703Z,2.07
2022-09-26T11:22:03.251Z,2.13
2022-09-26T11:24:38.191Z,2.20
2022-09-26T11:27:13.311Z,1.97
2022-09-26T11:29:44.422Z,1.97
2022-09-26T11:32:15.108Z,2.57
2022-09-26T11:34:44.172Z,2.10
2022-09-26T11:37:22.083Z,1.97
2022-09-26T11:40:00.441Z,1.90
2022-09-26T11:42:39.595Z,2.57
2022-09-26T11:45:15.218Z,2.30
2022-09-26T11:47:58.061Z,2.17
2022-09-26T11:50:49.490Z,1.93
2022-09-26T11:53:33.361Z,2.33
2022-09-26T11:56:15.816Z,1.73
2022-09-26T11:58:48.335Z,1.97
2022-09-26T12:01:24.317Z,2.03
2022-09-26T12:04:16.386Z,1.50
2022-09-26T12:06:52.197Z,2.23
2022-09-26T12:09:32.834Z,1.90
2022-09-26T12:12:09.522Z,2.10
2022-09-26T12:14:45.847Z,1.40
2022-09-26T12:17:21.596Z,2.07
2022-09-26T12:19:56.469Z,1.60
2022-09-26T12:22:29.701Z,1.87
2022-09-26T12:25:13.052Z,1.77
2022-09-26T12:27:47.896Z,1.73
2022-09-26T12:30:17.149Z,1.50
2022-09-26T12:33:02.669Z,1.40
2022-09-26T12:35:38.412Z,1.83
2022-09-26T12:38:20.409Z,1.53
2022-09-26T12:40:56.200Z,1.97
2022-09-26T12:43:38.410Z,1.63
2022-09-26T12:46:16.952Z,1.50
2022-09-26T12:48:55.997Z,1.50
2022-09-26T12:51:30.857Z,1.27
2022-09-26T12:54:20.776Z,1.40
2022-09-26T12:56:53.111Z,1.37
2022-09-26T12:59:37.797Z,1.20
2022-09-26T13:02:20.226Z,1.90
2022-09-26T13:05:08.466Z,1.80
2022-09-26T13:07:44.813Z,1.50
2022-09-26T13:10:41.963Z,1.47
2022-09-26T13:13:30.205Z,1.67
2022-09-26T13:16:08.164Z,1.30
2022-09-26T13:18:44.679Z,1.70
2022-09-26T13:21:14.638Z,1.47
2022-09-26T13:23:46.863Z,1.07
2022-09-26T13:26:19.835Z,1.40
2022-09-26T13:29:12.859Z,1.40
2022-09-26T13:31:40.927Z,1.40
2022-09-26T13:34:14.809Z,1.17
2022-09-26T13:36:43.336Z,1.23
2022-09-26T13:39:16.245Z,1.07
2022-09-26T13:41:49.251Z,1.00
2022-09-26T13:44:27.027Z,1.07
2022-09-26T13:47:03.468Z,1.07
2022-09-26T13:49:40.075Z,0.90
2022-09-26T13:52:19.960Z,0.80
2022-09-26T13:54:57.145Z,0.90
2022-09-26T13:57:31.724Z,0.90
2022-09-26T13:59:59.617Z,1.50
2022-09-26T14:02:29.174Z,1.10
2022-09-26T14:05:28.497Z,0.90
2022-09-26T14:08:13.571Z,0.90
2022-09-26T14:10:43.298Z,1.00
2022-09-26T14:13:21.777Z,1.00
2022-09-26T14:16:03.453Z,1.40
2022-09-26T14:18:47.296Z,0.97
2022-09-26T14:21:32.679Z,0.80
2022-09-26T14:24:37.116Z,1.00
2022-09-26T14:27:21.737Z,0.97
2022-09-26T14:29:53.572Z,1.10
2022-09-26T14:32:24.001Z,1.17
2022-09-26T14:34:57.205Z,0.90
2022-09-26T14:37:30.890Z,1.50
2022-09-26T14:40:07.135Z,1.30
2022-09-26T14:42:38.325Z,1.10
2022-09-26T14:45:09.663Z,1.00
2022-09-26T14:47:41.192Z,0.97
2022-09-26T14:50:17.499Z,1.50
2022-09-26T14:52:51.564Z,1.57
2022-09-26T14:55:20.194Z,1.10
2022-09-26T14:57:48.965Z,1.60
2022-09-26T15:00:40.317Z,1.57
2022-09-26T15:03:14.742Z,1.37
2022-09-26T15:05:43.392Z,1.20
2022-09-26T15:08:24.358Z,1.30
2022-09-26T15:10:53.010Z,1.23
2022-09-26T15:13:28.192Z,1.63
2022-09-26T15:16:02.110Z,0.93
2022-09-26T15:18:34.617Z,1.27
2022-09-26T15:21:10.791Z,0.90
2022-09-26T15:23:47.861Z,1.20
2022-09-26T15:26:17.762Z,1.67
2022-09-26T15:28:48.411Z,0.77
2022-09-26T15:31:22.567Z,0.90
2022-09-26T15:33:55.993Z,1.00
2022-09-26T15:36:23.624Z,1.10
2022-09-26T15:38:51.185Z,0.87
2022-09-26T15:41:42.509Z,1.10
2022-09-26T15:44:20.548Z,0.97
2022-09-26T15:46:50.897Z,1.20
2022-09-26T15:49:22.905Z,0.80
2022-09-26T15:51:54.042Z,0.90
2022-09-26T15:54:24.055Z,0.90
2022-09-26T15:56:52.204Z,1.00
2022-09-26T15:59:22.608Z,0.87
2022-09-26T16:01:52.454Z,0.97
2022-09-26T16:04:22.411Z,1.07
2022-09-26T16:06:56.728Z,0.90
2022-09-26T16:09:27.275Z,0.80
2022-09-26T16:11:56.470Z,1.00
2022-09-26T16:14:27.039Z,1.07
2022-09-26T16:17:02.758Z,0.70
2022-09-26T16:19:33.505Z,1.30
2022-09-26T16:22:22.431Z,0.80
2022-09-26T16:24:50.940Z,1.60
2022-09-26T16:27:25.061Z,1.00
2022-09-26T16:29:52.937Z,0.93
2022-09-26T16:32:23.229Z,1.10
2022-09-26T16:34:51.122Z,1.00
2022-09-26T16:37:19.607Z,0.80
2022-09-26T16:39:56.070Z,0.70
2022-09-26T16:42:32.679Z,1.00
2022-09-26T16:45:04.780Z,0.77
2022-09-26T16:47:42.741Z,0.90
2022-09-26T16:50:26.997Z,1.10
2022-09-26T16:52:55.125Z,0.73
2022-09-26T16:55:23.151Z,0.93
2022-09-26T16:57:53.844Z,0.90
2022-09-26T17:00:40.974Z,1.10
2022-09-26T17:03:21.151Z,0.70
2022-09-26T17:05:49.171Z,0.80
2022-09-26T17:08:17.710Z,0.80
2022-09-26T17:10:45.995Z,0.90
2022-09-26T17:13:16.974Z,0.77
2022-09-26T17:15:47.608Z,0.93
2022-09-26T17:18:20.756Z,1.43
2022-09-26T17:20:49.057Z,1.00
2022-09-26T17:23:39.354Z,1.10
2022-09-26T17:26:07.795Z,1.20
2022-09-26T17:28:38.519Z,1.03
2022-09-26T17:31:07.797Z,1.40
2022-09-26T17:33:39.967Z,1.30
2022-09-26T17:36:10.792Z,1.10
2022-09-26T17:38:42.143Z,1.40
2022-09-26T17:41:12.427Z,1.00
2022-09-26T17:43:40.062Z,1.50
2022-09-26T17:46:15.173Z,1.17
2022-09-26T17:48:44.825Z,1.80
2022-09-26T17:51:14.127Z,1.30
2022-09-26T17:53:49.788Z,1.30
2022-09-26T17:56:18.503Z,1.10
2022-09-26T17:58:47.080Z,0.97
2022-09-26T18:01:22.148Z,1.20
2022-09-26T18:03:54.842Z,1.30
2022-09-26T18:06:25.925Z,1.33
2022-09-26T18:08:54.991Z,1.70
2022-09-26T18:11:22.615Z,1.83
2022-09-26T18:13:54.514Z,1.53
2022-09-26T18:16:25.118Z,1.20
2022-09-26T18:18:54.172Z,1.80
2022-09-26T18:21:24.280Z,1.80
2022-09-26T18:23:53.582Z,1.70
2022-09-26T18:26:27.262Z,1.80
2022-09-26T18:28:56.676Z,2.03
2022-09-26T18:31:28.124Z,1.93
2022-09-26T18:33:57.920Z,2.10
2022-09-26T18:36:26.155Z,1.87
2022-09-26T18:38:53.969Z,2.00
2022-09-26T18:41:26.860Z,2.40
2022-09-26T18:43:55.823Z,2.33
2022-09-26T18:46:23.658Z,1.83
2022-09-26T18:48:51.770Z,1.33
2022-09-26T18:51:20.899Z,1.90
2022-09-26T18:53:48.505Z,1.63
2022-09-26T18:56:33.705Z,2.10
2022-09-26T18:59:01.471Z,1.53
2022-09-26T19:01:31.373Z,1.30
2022-09-26T19:04:00.145Z,1.30
2022-09-26T19:06:31.988Z,2.07
2022-09-26T19:09:01.377Z,1.90
2022-09-26T19:11:32.002Z,1.70
2022-09-26T19:14:02.470Z,1.60
2022-09-26T19:16:30.128Z,1.37
2022-09-26T19:18:57.793Z,1.50
2022-09-26T19:21:31.734Z,2.20
2022-09-26T19:24:01.417Z,1.40
2022-09-26T19:26:32.362Z,1.40
2022-09-26T19:29:00.494Z,1.40
2022-09-26T19:31:28.329Z,1.40
2022-09-26T19:33:56.226Z,1.63
2022-09-26T19:36:24.050Z,1.73
2022-09-26T19:38:53.000Z,1.83
2022-09-26T19:41:20.619Z,1.53
2022-09-26T19:43:48.277Z,1.30
2022-09-26T19:46:21.143Z,1.40
2022-09-26T19:48:48.949Z,1.10
2022-09-26T19:51:19.727Z,1.80
2022-09-26T19:53:47.443Z,1.17
2022-09-26T19:56:16.479Z,1.50
2022-09-26T19:58:46.217Z,1.30
2022-09-26T20:01:16.420Z,1.20
2022-09-26T20:03:44.856Z,1.73
2022-09-26T20:06:14.232Z,1.80
2022-09-26T20:08:42.101Z,1.50
2022-09-26T20:11:09.853Z,1.23
2022-09-26T20:13:52.775Z,1.77
2022-09-26T20:16:20.724Z,1.63
2022-09-26T20:18:51.023Z,1.33
2022-09-26T20:21:20.302Z,1.50
2022-09-26T20:23:48.288Z,1.50
2022-09-26T20:26:17.334Z,1.53
2022-09-26T20:28:46.366Z,1.33
2022-09-26T20:31:21.437Z,1.03
2022-09-26T20:33:49.282Z,1.90
2022-09-26T20:36:17.469Z,1.30
2022-09-26T20:38:47.038Z,1.50
2022-09-26T20:41:20.424Z,0.90
2022-09-26T20:43:51.306Z,1.60
2022-09-26T20:46:20.872Z,1.40
2022-09-26T20:48:50.405Z,2.00
2022-09-26T20:51:20.388Z,1.37
2022-09-26T20:53:50.008Z,1.60
2022-09-26T20:56:20.873Z,1.30
2022-09-26T20:58:49.731Z,1.10
2022-09-26T21:01:20.939Z,1.10
2022-09-26T21:03:56.460Z,1.40
2022-09-26T21:06:26.605Z,1.67
2022-09-26T21:08:54.271Z,1.00
2022-09-26T21:11:23.742Z,1.33
2022-09-26T21:13:52.674Z,1.17
2022-09-26T21:16:21.370Z,1.43
2022-09-26T21:18:51.541Z,1.37
2022-09-26T21:21:22.570Z,1.00
2022-09-26T21:23:50.556Z,1.80
2022-09-26T21:26:21.026Z,1.33
2022-09-26T21:28:50.708Z,1.53
2022-09-26T21:31:26.002Z,1.07
2022-09-26T21:33:54.035Z,1.20
2022-09-26T21:36:22.179Z,1.33
2022-09-26T21:38:51.721Z,1.50
2022-09-26T21:41:19.574Z,1.13
2022-09-26T21:43:50.326Z,1.20
2022-09-26T21:46:20.318Z,1.33
2022-09-26T21:48:51.600Z,1.07
2022-09-26T21:51:20.657Z,1.27
2022-09-26T21:53:53.211Z,1.13
2022-09-26T21:56:24.347Z,1.20
2022-09-26T21:58:56.073Z,1.07
2022-09-26T22:01:24.187Z,1.70
2022-09-26T22:03:55.477Z,1.13
2022-09-26T22:06:23.339Z,1.40
2022-09-26T22:08:54.745Z,1.50
2022-09-26T22:11:22.293Z,1.00
2022-09-26T22:13:49.760Z,1.13
2022-09-26T22:16:17.802Z,1.50
2022-09-26T22:18:45.305Z,1.03
2022-09-26T22:21:14.190Z,1.10
2022-09-26T22:23:41.875Z,1.10
2022-09-26T22:26:09.491Z,1.47
2022-09-26T22:28:37.042Z,0.93
2022-09-26T22:31:05.686Z,1.17
2022-09-26T22:33:33.451Z,1.10
2022-09-26T22:36:00.930Z,1.10
2022-09-26T22:38:29.843Z,1.30
2022-09-26T22:40:57.763Z,0.97
2022-09-26T22:43:25.378Z,1.10
2022-09-26T22:45:53.145Z,0.70
2022-09-26T22:48:21.490Z,0.90
2022-09-26T22:50:48.966Z,1.23
2022-09-26T22:53:16.435Z,1.00
2022-09-26T22:55:54.706Z,0.90
2022-09-26T22:58:22.707Z,0.80
2022-09-26T23:00:50.967Z,0.70
2022-09-26T23:03:18.488Z,1.53
2022-09-26T23:05:47.911Z,0.83
2022-09-26T23:08:15.417Z,1.13
2022-09-26T23:10:49.232Z,0.90
2022-09-26T23:13:18.353Z,0.90
2022-09-26T23:15:46.169Z,0.97
2022-09-26T23:18:14.189Z,0.83
2022-09-26T23:20:42.362Z,0.87
2022-09-26T23:23:10.942Z,0.80
2022-09-26T23:25:45.837Z,1.10
2022-09-26T23:28:13.344Z,0.70
2022-09-26T23:30:42.524Z,0.83
2022-09-26T23:33:10.220Z,0.90
2022-09-26T23:35:38.161Z,0.90
2022-09-26T23:38:05.812Z,1.07
2022-09-26T23:40:34.177Z,0.87
2022-09-26T23:43:02.475Z,0.83
2022-09-26T23:45:30.960Z,1.13
2022-09-26T23:48:00.012Z,0.80
2022-09-26T23:50:27.469Z,0.87
2022-09-26T23:52:54.914Z,0.90
2022-09-26T23:55:22.425Z,1.00
2022-09-26T23:57:50.034Z,0.77
